createdAt,value
2022-11-27T00:01:18.944Z,22.00
2022-11-27T00:03:46.500Z,21.60
2022-11-27T00:06:14.212Z,24.80
2022-11-27T00:08:40.645Z,28.00
2022-11-27T00:13:48.078Z,27.50
2022-11-27T00:16:15.249Z,27.00
2022-11-27T00:18:41.981Z,25.00
2022-11-27T00:21:10.659Z,24.25
2022-11-27T00:23:37.103Z,21.60
2022-11-27T00:26:04.295Z,18.50
2022-11-27T00:28:30.711Z,20.00
2022-11-27T00:31:04.553Z,17.00
2022-11-27T00:33:31.167Z,18.00
2022-11-27T00:36:01.585Z,18.20
2022-11-27T00:38:27.997Z,18.50
2022-11-27T00:40:54.433Z,20.00
2022-11-27T00:43:20.869Z,20.00
2022-11-27T00:45:50.485Z,20.00
2022-11-27T00:48:16.932Z,20.50
2022-11-27T00:50:43.381Z,20.60
2022-11-27T00:53:09.775Z,20.00
2022-11-27T00:55:36.172Z,22.00
2022-11-27T00:58:02.591Z,21.50
2022-11-27T01:00:29.006Z,21.50
2022-11-27T01:02:55.517Z,20.00
2022-11-27T01:05:22.050Z,20.00
2022-11-27T01:07:48.503Z,21.25
2022-11-27T01:10:15.022Z,19.60
2022-11-27T01:12:41.452Z,22.00
2022-11-27T01:15:08.314Z,24.00
2022-11-27T01:17:34.765Z,25.80
2022-11-27T01:20:01.227Z,24.75
2022-11-27T01:22:27.670Z,25.50
2022-11-27T01:24:54.097Z,24.40
2022-11-27T01:27:20.550Z,23.75
2022-11-27T01:29:46.985Z,23.00
2022-11-27T01:32:13.449Z,26.00
2022-11-27T01:34:40.285Z,27.00
2022-11-27T01:37:06.740Z,27.00
2022-11-27T01:39:33.143Z,26.00
2022-11-27T01:41:59.560Z,23.00
2022-11-27T01:44:26.038Z,23.00
2022-11-27T01:46:55.487Z,22.60
2022-11-27T01:49:28.867Z,23.00
2022-11-27T01:52:07.334Z,23.50
2022-11-27T01:54:36.844Z,22.00
2022-11-27T01:57:06.569Z,23.00
2022-11-27T01:59:33.135Z,23.00
2022-11-27T02:02:00.617Z,23.00
2022-11-27T02:04:27.062Z,23.00
2022-11-27T02:06:55.374Z,24.00
2022-11-27T02:09:21.909Z,23.00
2022-11-27T02:11:56.063Z,25.50
2022-11-27T02:14:35.428Z,24.00
2022-11-27T02:17:18.154Z,23.60
2022-11-27T02:20:03.015Z,23.00
2022-11-27T02:22:29.399Z,23.20
2022-11-27T02:25:11.096Z,23.00
2022-11-27T02:27:56.588Z,24.00
2022-11-27T02:30:23.239Z,22.00
2022-11-27T02:32:54.410Z,22.00
2022-11-27T02:35:26.371Z,21.75
2022-11-27T02:38:31.492Z,22.00
2022-11-27T02:41:05.472Z,20.00
2022-11-27T02:43:39.097Z,19.00
2022-11-27T02:46:07.367Z,18.50
2022-11-27T02:48:36.141Z,16.00
2022-11-27T02:51:05.588Z,16.00
2022-11-27T02:53:40.608Z,14.50
2022-11-27T02:56:09.119Z,15.60
2022-11-27T02:58:36.405Z,14.00
2022-11-27T03:01:04.028Z,13.00
2022-11-27T03:03:34.264Z,12.75
2022-11-27T03:06:03.223Z,11.75
2022-11-27T03:08:40.264Z,13.00
2022-11-27T03:11:14.042Z,11.00
2022-11-27T03:13:45.576Z,11.50
2022-11-27T03:16:21.211Z,10.00
2022-11-27T03:19:02.736Z,11.75
2022-11-27T03:21:49.376Z,12.00
2022-11-27T03:24:16.366Z,11.75
2022-11-27T03:26:43.872Z,11.00
2022-11-27T03:29:16.089Z,10.00
2022-11-27T03:31:42.529Z,11.40
2022-11-27T03:34:09.018Z,10.00
2022-11-27T03:36:35.527Z,10.00
2022-11-27T03:39:02.145Z,11.50
2022-11-27T03:41:38.960Z,12.00
2022-11-27T03:44:05.351Z,9.00
2022-11-27T03:46:45.932Z,12.00
2022-11-27T03:49:28.653Z,11.00
2022-11-27T03:52:12.962Z,11.00
2022-11-27T03:54:39.514Z,11.60
2022-11-27T03:57:13.572Z,10.50
2022-11-27T03:59:42.442Z,11.00
2022-11-27T04:02:13.853Z,12.00
2022-11-27T04:04:40.812Z,10.75
2022-11-27T04:07:07.485Z,12.00
2022-11-27T04:09:33.914Z,12.00
2022-11-27T04:12:00.342Z,11.00
2022-11-27T04:14:26.732Z,15.00
2022-11-27T04:16:53.181Z,11.20
2022-11-27T04:19:19.614Z,15.00
2022-11-27T04:21:46.019Z,14.00
2022-11-27T04:24:12.586Z,13.50
2022-11-27T04:26:39.124Z,14.00
2022-11-27T04:29:05.796Z,14.75
2022-11-27T04:31:32.260Z,16.20
2022-11-27T04:33:58.727Z,15.40
2022-11-27T04:36:25.122Z,17.00
2022-11-27T04:38:51.526Z,17.00
2022-11-27T04:41:18.048Z,17.00
2022-11-27T04:43:44.484Z,15.00
2022-11-27T04:46:11.046Z,16.00
2022-11-27T04:48:37.527Z,17.50
2022-11-27T04:51:04.007Z,20.00
2022-11-27T04:53:30.400Z,19.40
2022-11-27T04:55:56.827Z,17.00
2022-11-27T04:58:23.255Z,18.00
2022-11-27T05:00:49.715Z,18.00
2022-11-27T05:03:16.269Z,18.50
2022-11-27T05:05:42.804Z,19.60
2022-11-27T05:08:09.220Z,19.20
2022-11-27T05:10:35.651Z,20.00
2022-11-27T05:13:02.048Z,20.00
2022-11-27T05:15:28.441Z,18.50
2022-11-27T05:17:54.875Z,16.60
2022-11-27T05:20:21.275Z,17.25
2022-11-27T05:22:49.668Z,15.00
2022-11-27T05:25:16.155Z,16.00
2022-11-27T05:27:44.914Z,15.75
2022-11-27T05:30:11.580Z,15.50
2022-11-27T05:32:38.137Z,16.00
2022-11-27T05:35:04.687Z,15.00
2022-11-27T05:37:31.119Z,16.00
2022-11-27T05:39:57.545Z,17.00
2022-11-27T05:42:23.965Z,17.00
2022-11-27T05:44:55.309Z,15.40
2022-11-27T05:47:24.486Z,16.00
2022-11-27T05:49:50.928Z,17.00
2022-11-27T05:52:17.414Z,15.00
2022-11-27T05:54:44.240Z,16.40
2022-11-27T05:57:10.654Z,14.25
2022-11-27T05:59:37.149Z,13.60
2022-11-27T06:02:03.715Z,14.00
2022-11-27T06:04:32.726Z,12.75
2022-11-27T06:06:59.151Z,13.25
2022-11-27T06:09:25.618Z,13.00
2022-11-27T06:11:52.037Z,15.00
2022-11-27T06:14:18.464Z,14.00
2022-11-27T06:16:44.971Z,13.00
2022-11-27T06:19:11.427Z,15.00
2022-11-27T06:21:37.868Z,15.80
2022-11-27T06:24:04.384Z,15.60
2022-11-27T06:26:31.774Z,16.00
2022-11-27T06:28:58.960Z,13.00
2022-11-27T06:31:26.764Z,15.00
2022-11-27T06:33:53.930Z,14.50
2022-11-27T06:36:20.805Z,16.00
2022-11-27T06:38:47.403Z,14.00
2022-11-27T06:41:15.613Z,13.40
2022-11-27T06:43:42.382Z,15.00
2022-11-27T06:46:11.733Z,15.00
2022-11-27T06:48:38.319Z,14.20
2022-11-27T06:51:06.003Z,12.40
2022-11-27T06:53:34.251Z,12.00
2022-11-27T06:56:02.948Z,12.00
2022-11-27T06:58:31.272Z,10.20
2022-11-27T07:01:02.739Z,10.75
2022-11-27T07:03:29.261Z,9.40
2022-11-27T07:05:55.714Z,6.50
2022-11-27T07:08:22.514Z,9.00
2022-11-27T07:10:48.927Z,9.00
2022-11-27T07:13:15.389Z,10.50
2022-11-27T07:15:42.133Z,8.00
2022-11-27T07:18:08.543Z,8.00
2022-11-27T07:20:35.008Z,9.20
2022-11-27T07:23:01.569Z,8.00
2022-11-27T07:25:27.992Z,8.20
2022-11-27T07:27:55.618Z,9.00
2022-11-27T07:30:22.090Z,9.00
2022-11-27T07:32:48.492Z,11.00
2022-11-27T07:35:14.944Z,9.00
2022-11-27T07:37:41.400Z,8.00
2022-11-27T07:40:08.040Z,8.60
2022-11-27T07:42:38.797Z,8.00
2022-11-27T07:45:06.514Z,8.00
2022-11-27T07:47:32.936Z,6.60
2022-11-27T07:50:00.569Z,7.00
2022-11-27T07:52:27.461Z,7.00
2022-11-27T07:54:54.244Z,7.75
2022-11-27T07:57:20.671Z,6.00
2022-11-27T07:59:47.611Z,8.00
2022-11-27T08:02:14.875Z,7.50
2022-11-27T08:04:41.928Z,8.00
2022-11-27T08:07:08.629Z,9.00
2022-11-27T08:09:35.145Z,9.80
2022-11-27T08:12:01.572Z,7.50
2022-11-27T08:14:28.029Z,10.00
2022-11-27T08:16:54.671Z,11.00
2022-11-27T08:19:21.197Z,12.40
2022-11-27T08:21:47.752Z,9.00
2022-11-27T08:24:14.219Z,12.00
2022-11-27T08:26:40.775Z,11.00
2022-11-27T08:29:07.503Z,11.20
2022-11-27T08:31:34.184Z,10.00
2022-11-27T08:34:00.658Z,11.00
2022-11-27T08:36:27.310Z,10.00
2022-11-27T08:38:54.421Z,9.25
2022-11-27T08:41:21.177Z,8.00
2022-11-27T08:43:47.609Z,8.00
2022-11-27T08:46:14.100Z,9.00
2022-11-27T08:48:41.831Z,9.40
2022-11-27T08:51:09.939Z,10.00
2022-11-27T08:53:37.753Z,9.75
2022-11-27T08:56:30.892Z,10.25
2022-11-27T08:58:57.493Z,8.60
2022-11-27T09:01:25.369Z,9.25
2022-11-27T09:03:52.897Z,7.75
2022-11-27T09:06:21.491Z,9.00
2022-11-27T09:08:48.452Z,7.00
2022-11-27T09:11:15.885Z,9.00
2022-11-27T09:13:42.727Z,9.00
2022-11-27T09:16:13.119Z,8.20
2022-11-27T09:18:40.002Z,8.00
2022-11-27T09:21:08.225Z,7.80
2022-11-27T09:23:35.214Z,7.20
2022-11-27T09:26:02.990Z,8.20
2022-11-27T09:28:31.671Z,7.50
2022-11-27T09:30:59.623Z,8.00
2022-11-27T09:33:26.904Z,7.20
2022-11-27T09:35:53.422Z,6.00
2022-11-27T09:38:20.032Z,5.50
2022-11-27T09:40:48.408Z,6.40
2022-11-27T09:43:15.271Z,6.00
2022-11-27T09:45:50.348Z,4.80
2022-11-27T09:48:22.352Z,6.00
2022-11-27T09:50:53.227Z,5.20
2022-11-27T09:53:31.761Z,5.00
2022-11-27T09:55:59.508Z,5.60
2022-11-27T09:58:31.778Z,5.50
2022-11-27T10:00:58.548Z,5.60
2022-11-27T10:03:26.254Z,5.00
2022-11-27T10:05:52.733Z,7.40
2022-11-27T10:08:38.003Z,5.00
2022-11-27T10:11:21.571Z,5.00
2022-11-27T10:13:53.807Z,5.00
2022-11-27T10:16:26.266Z,4.75
2022-11-27T10:18:59.431Z,4.50
2022-11-27T10:21:28.969Z,6.00
2022-11-27T10:23:55.387Z,6.40
2022-11-27T10:26:28.161Z,7.00
2022-11-27T10:29:06.899Z,3.75
2022-11-27T10:31:33.439Z,5.00
2022-11-27T10:34:05.418Z,5.40
2022-11-27T10:36:43.258Z,6.00
2022-11-27T10:39:15.014Z,5.00
2022-11-27T10:41:49.936Z,5.60
2022-11-27T10:44:28.725Z,4.25
2022-11-27T10:46:58.623Z,4.50
2022-11-27T10:49:25.066Z,6.50
2022-11-27T10:51:51.486Z,5.75
2022-11-27T10:54:23.243Z,4.60
2022-11-27T10:56:52.437Z,7.00
2022-11-27T10:59:22.237Z,6.00
2022-11-27T11:01:50.776Z,5.75
2022-11-27T11:04:38.316Z,5.00
2022-11-27T11:07:16.652Z,5.00
2022-11-27T11:09:46.332Z,8.20
2022-11-27T11:12:18.584Z,7.00
2022-11-27T11:14:55.074Z,6.00
2022-11-27T11:17:28.639Z,5.75
2022-11-27T11:19:55.118Z,13.00
2022-11-27T11:22:21.816Z,9.25
2022-11-27T11:24:50.011Z,7.00
2022-11-27T11:27:21.475Z,6.50
2022-11-27T11:30:04.937Z,8.00
2022-11-27T11:32:39.159Z,11.00
2022-11-27T11:35:24.665Z,5.00
2022-11-27T11:37:51.653Z,7.80
2022-11-27T11:40:21.057Z,8.40
2022-11-27T11:43:01.247Z,5.00
2022-11-27T11:45:31.337Z,8.00
2022-11-27T11:48:00.824Z,5.00
2022-11-27T11:50:27.245Z,5.20
2022-11-27T11:52:59.325Z,7.00
2022-11-27T11:55:36.469Z,6.00
2022-11-27T11:58:10.483Z,8.00
2022-11-27T12:01:04.400Z,6.00
2022-11-27T12:03:38.326Z,7.00
2022-11-27T12:06:14.074Z,7.75
2022-11-27T12:08:59.019Z,5.00
2022-11-27T12:11:31.669Z,7.00
2022-11-27T12:13:58.057Z,5.00
2022-11-27T12:16:27.636Z,5.00
2022-11-27T12:18:57.985Z,4.40
2022-11-27T12:21:44.665Z,4.00
2022-11-27T12:24:13.946Z,5.75
2022-11-27T12:26:40.312Z,3.00
2022-11-27T12:29:06.672Z,2.00
2022-11-27T12:31:36.164Z,4.00
2022-11-27T12:34:06.169Z,3.00
2022-11-27T12:36:38.413Z,1.75
2022-11-27T12:39:23.664Z,2.50
2022-11-27T12:42:01.761Z,3.00
2022-11-27T12:44:57.953Z,4.00
2022-11-27T12:47:38.792Z,5.00
2022-11-27T12:50:32.902Z,3.00
2022-11-27T12:53:03.418Z,3.00
2022-11-27T12:55:31.453Z,3.00
2022-11-27T12:58:00.479Z,2.60
2022-11-27T13:00:29.543Z,3.00
2022-11-27T13:03:04.935Z,4.00
2022-11-27T13:05:53.770Z,4.00
2022-11-27T13:08:25.970Z,4.40
2022-11-27T13:10:56.864Z,2.80
2022-11-27T13:13:27.978Z,3.00
2022-11-27T13:15:54.416Z,4.00
2022-11-27T13:18:20.800Z,3.00
2022-11-27T13:20:52.348Z,3.75
2022-11-27T13:23:20.111Z,3.00
2022-11-27T13:25:50.084Z,3.40
2022-11-27T13:28:25.410Z,3.00
2022-11-27T13:30:53.340Z,5.80
2022-11-27T13:33:39.561Z,3.75
2022-11-27T13:36:08.934Z,3.00
2022-11-27T13:38:41.248Z,3.00
2022-11-27T13:41:08.435Z,3.00
2022-11-27T13:43:42.732Z,3.20
2022-11-27T13:46:12.253Z,3.50
2022-11-27T13:48:42.203Z,4.40
2022-11-27T13:51:09.738Z,20.60
2022-11-27T13:53:37.699Z,6.00
2022-11-27T13:56:04.848Z,6.60
2022-11-27T13:58:35.959Z,4.00
2022-11-27T14:01:13.064Z,4.00
2022-11-27T14:03:39.640Z,4.00
2022-11-27T14:06:15.962Z,3.60
2022-11-27T14:08:49.056Z,10.00
2022-11-27T14:11:15.511Z,4.80
2022-11-27T14:13:44.088Z,5.00
2022-11-27T14:16:22.657Z,11.80
2022-11-27T14:18:50.806Z,6.75
2022-11-27T14:21:25.092Z,10.00
2022-11-27T14:23:52.473Z,8.25
2022-11-27T14:26:18.866Z,9.00
2022-11-27T14:28:48.481Z,8.00
2022-11-27T14:31:41.425Z,6.40
2022-11-27T14:34:24.891Z,16.75
2022-11-27T14:36:51.964Z,5.60
2022-11-27T14:39:37.388Z,6.00
2022-11-27T14:42:08.172Z,8.00
2022-11-27T14:44:35.049Z,6.00
2022-11-27T14:47:03.428Z,5.80
2022-11-27T14:49:30.636Z,6.00
2022-11-27T14:52:01.166Z,7.00
2022-11-27T14:54:29.817Z,7.00
2022-11-27T14:56:56.561Z,4.00
2022-11-27T14:59:23.980Z,5.00
2022-11-27T15:02:09.280Z,4.20
2022-11-27T15:04:37.235Z,3.00
2022-11-27T15:07:14.030Z,5.00
2022-11-27T15:09:44.528Z,3.75
2022-11-27T15:12:16.844Z,3.40
2022-11-27T15:15:03.458Z,4.00
2022-11-27T15:17:32.131Z,5.00
2022-11-27T15:19:59.252Z,3.00
2022-11-27T15:22:25.705Z,3.00
2022-11-27T15:25:05.966Z,2.40
2022-11-27T15:27:33.479Z,3.00
2022-11-27T15:30:01.296Z,3.00
2022-11-27T15:32:34.256Z,3.00
2022-11-27T15:35:00.679Z,3.40
2022-11-27T15:37:27.335Z,1.00
2022-11-27T15:39:55.249Z,4.00
2022-11-27T15:42:22.448Z,3.50
2022-11-27T15:44:49.897Z,2.80
2022-11-27T15:47:24.462Z,2.50
2022-11-27T15:49:51.093Z,3.25
2022-11-27T15:52:17.599Z,3.00
2022-11-27T15:54:44.283Z,4.40
2022-11-27T15:57:10.911Z,4.00
2022-11-27T15:59:37.355Z,3.00
2022-11-27T16:02:04.061Z,6.00
2022-11-27T16:04:30.835Z,3.50
2022-11-27T16:06:57.273Z,9.00
2022-11-27T16:09:24.132Z,8.60
2022-11-27T16:11:50.916Z,6.25
2022-11-27T16:14:17.355Z,8.00
2022-11-27T16:16:43.863Z,5.60
2022-11-27T16:19:12.268Z,3.40
2022-11-27T16:21:39.088Z,4.00
2022-11-27T16:24:06.731Z,5.00
2022-11-27T16:26:33.634Z,9.00
2022-11-27T16:29:00.180Z,9.00
2022-11-27T16:31:26.761Z,11.00
2022-11-27T16:33:53.447Z,9.00
2022-11-27T16:36:20.838Z,7.00
2022-11-27T16:38:47.270Z,9.00
2022-11-27T16:41:17.632Z,14.00
2022-11-27T16:43:45.773Z,18.00
2022-11-27T16:46:13.274Z,21.50
2022-11-27T16:48:41.191Z,19.80
2022-11-27T16:51:15.702Z,15.00
2022-11-27T16:53:43.988Z,14.75
2022-11-27T16:56:11.715Z,14.00
2022-11-27T16:58:39.231Z,16.00
2022-11-27T17:01:06.685Z,14.40
2022-11-27T17:03:33.819Z,17.60
2022-11-27T17:06:00.413Z,16.50
2022-11-27T17:08:27.057Z,15.75
2022-11-27T17:10:53.474Z,16.00
2022-11-27T17:13:19.920Z,14.00
2022-11-27T17:15:46.362Z,15.00
2022-11-27T17:18:12.971Z,19.80
2022-11-27T17:20:39.501Z,16.00
2022-11-27T17:23:06.171Z,11.20
2022-11-27T17:25:32.809Z,11.60
2022-11-27T17:27:59.294Z,8.25
2022-11-27T17:30:25.798Z,11.50
2022-11-27T17:32:52.338Z,13.50
2022-11-27T17:35:18.866Z,11.40
2022-11-27T17:37:45.488Z,8.50
2022-11-27T17:40:12.358Z,9.75
2022-11-27T17:42:38.866Z,8.20
2022-11-27T17:45:05.629Z,9.00
2022-11-27T17:47:34.066Z,12.00
2022-11-27T17:50:00.669Z,10.00
2022-11-27T17:52:27.321Z,9.67
2022-11-27T17:54:53.851Z,11.20
2022-11-27T17:57:20.328Z,10.00
2022-11-27T17:59:46.754Z,11.00
2022-11-27T18:02:13.255Z,9.00
2022-11-27T18:04:39.701Z,10.00
2022-11-27T18:07:06.100Z,10.00
2022-11-27T18:09:32.558Z,9.00
2022-11-27T18:11:59.011Z,10.25
2022-11-27T18:14:25.612Z,11.00
2022-11-27T18:16:52.112Z,11.00
2022-11-27T18:19:18.626Z,9.25
2022-11-27T18:21:45.183Z,9.00
2022-11-27T18:24:26.885Z,10.00
2022-11-27T18:27:09.866Z,15.00
2022-11-27T18:29:37.321Z,11.00
2022-11-27T18:32:03.987Z,9.40
2022-11-27T18:34:30.552Z,8.75
2022-11-27T18:36:59.667Z,7.00
2022-11-27T18:39:26.350Z,7.00
2022-11-27T18:41:52.752Z,11.00
2022-11-27T18:44:19.289Z,6.80
2022-11-27T18:46:45.718Z,7.00
2022-11-27T18:49:12.460Z,9.20
2022-11-27T18:51:38.874Z,8.20
2022-11-27T18:54:05.397Z,7.00
2022-11-27T18:56:32.178Z,7.00
2022-11-27T18:59:03.157Z,8.00
2022-11-27T19:01:31.306Z,8.50
2022-11-27T19:04:00.303Z,9.50
2022-11-27T19:06:29.921Z,10.00
2022-11-27T19:08:59.184Z,8.50
2022-11-27T19:11:26.165Z,11.60
2022-11-27T19:13:54.372Z,13.00
2022-11-27T19:16:22.362Z,12.60
2022-11-27T19:18:48.805Z,12.50
2022-11-27T19:21:16.757Z,13.75
2022-11-27T19:23:43.537Z,14.00
2022-11-27T19:26:11.438Z,28.25
2022-11-27T19:28:38.218Z,21.00
2022-11-27T19:31:05.768Z,12.20
2022-11-27T19:33:32.332Z,19.60
2022-11-27T19:35:59.534Z,36.20
2022-11-27T19:38:25.996Z,20.00
2022-11-27T19:40:52.398Z,21.00
2022-11-27T19:43:19.209Z,26.00
2022-11-27T19:45:45.959Z,27.80
2022-11-27T19:48:12.407Z,26.75
2022-11-27T19:50:39.105Z,20.75
2022-11-27T19:53:07.193Z,18.00
2022-11-27T19:55:34.348Z,21.40
2022-11-27T19:58:01.345Z,17.40
2022-11-27T20:00:27.973Z,15.00
2022-11-27T20:02:54.374Z,19.00
2022-11-27T20:05:20.864Z,35.40
2022-11-27T20:07:48.554Z,58.80
2022-11-27T20:10:15.602Z,29.40
2022-11-27T20:12:42.168Z,28.25
2022-11-27T20:15:13.657Z,18.40
2022-11-27T20:17:44.352Z,21.50
2022-11-27T20:20:12.072Z,21.00
2022-11-27T20:22:38.531Z,56.40
2022-11-27T20:25:19.147Z,31.00
2022-11-27T20:27:46.601Z,26.00
2022-11-27T20:30:13.083Z,33.25
2022-11-27T20:32:39.479Z,31.50
2022-11-27T20:35:06.029Z,24.50
2022-11-27T20:37:33.970Z,20.00
2022-11-27T20:40:00.557Z,17.00
2022-11-27T20:42:26.961Z,22.00
2022-11-27T20:44:53.367Z,16.00
2022-11-27T20:47:19.853Z,14.40
2022-11-27T20:49:46.279Z,13.00
2022-11-27T20:52:14.513Z,18.75
2022-11-27T20:54:41.088Z,14.50
2022-11-27T20:57:11.007Z,15.00
2022-11-27T20:59:37.517Z,14.40
2022-11-27T21:02:05.417Z,14.00
2022-11-27T21:04:31.867Z,13.20
2022-11-27T21:06:58.644Z,12.25
2022-11-27T21:09:25.094Z,16.00
2022-11-27T21:11:51.499Z,12.00
2022-11-27T21:14:18.556Z,13.00
2022-11-27T21:16:48.418Z,15.00
2022-11-27T21:19:20.073Z,11.40
2022-11-27T21:21:46.526Z,12.60
2022-11-27T21:24:13.049Z,12.50
2022-11-27T21:26:40.228Z,15.00
2022-11-27T21:29:06.809Z,12.60
2022-11-27T21:31:37.519Z,14.80
2022-11-27T21:34:05.733Z,15.20
2022-11-27T21:36:33.494Z,14.25
2022-11-27T21:39:00.579Z,14.00
2022-11-27T21:41:28.205Z,17.60
2022-11-27T21:43:56.452Z,14.00
2022-11-27T21:46:23.298Z,13.00
2022-11-27T21:48:50.987Z,15.00
2022-11-27T21:51:19.053Z,14.60
2022-11-27T21:53:46.630Z,14.00
2022-11-27T21:56:14.503Z,13.00
2022-11-27T21:58:41.256Z,11.80
2022-11-27T22:01:11.228Z,10.00
2022-11-27T22:03:42.324Z,11.00
2022-11-27T22:06:18.883Z,13.20
2022-11-27T22:08:46.381Z,11.00
2022-11-27T22:11:14.785Z,11.00
2022-11-27T22:13:41.635Z,10.25
2022-11-27T22:16:09.009Z,10.00
2022-11-27T22:18:35.492Z,12.75
2022-11-27T22:21:05.556Z,11.00
2022-11-27T22:23:32.105Z,12.00
2022-11-27T22:26:01.913Z,10.60
2022-11-27T22:28:28.866Z,10.25
2022-11-27T22:30:55.965Z,8.75
2022-11-27T22:33:22.449Z,11.00
2022-11-27T22:35:48.840Z,11.00
2022-11-27T22:38:15.355Z,9.50
2022-11-27T22:40:43.786Z,10.50
2022-11-27T22:43:10.577Z,12.00
2022-11-27T22:45:41.606Z,11.60
2022-11-27T22:48:08.187Z,13.00
2022-11-27T22:50:34.583Z,16.00
2022-11-27T22:53:01.018Z,13.00
2022-11-27T22:55:28.178Z,13.50
2022-11-27T22:57:54.660Z,9.00
2022-11-27T23:00:21.569Z,10.20
2022-11-27T23:02:48.218Z,9.00
2022-11-27T23:05:14.698Z,8.00
2022-11-27T23:07:41.169Z,8.00
2022-11-27T23:10:09.407Z,9.75
2022-11-27T23:12:35.828Z,9.00
2022-11-27T23:15:02.272Z,10.00
2022-11-27T23:17:28.994Z,7.00
2022-11-27T23:19:55.393Z,7.20
2022-11-27T23:22:21.982Z,8.00
2022-11-27T23:24:48.400Z,7.80
2022-11-27T23:27:14.803Z,9.00
2022-11-27T23:29:41.244Z,7.60
2022-11-27T23:32:07.721Z,9.00
2022-11-27T23:34:34.166Z,6.60
2022-11-27T23:37:00.559Z,8.00
2022-11-27T23:39:27.002Z,6.00
2022-11-27T23:41:53.406Z,5.00
2022-11-27T23:44:20.925Z,7.00
2022-11-27T23:46:48.121Z,6.00
2022-11-27T23:49:14.590Z,6.50
2022-11-27T23:51:41.016Z,6.00
2022-11-27T23:54:09.371Z,5.00
2022-11-27T23:56:36.530Z,7.40
2022-11-27T23:59:03.452Z,7.00
